createdAt,value
2022-08-29T00:03:43.204Z,17.40
2022-08-29T00:08:11.371Z,17.40
2022-08-29T00:12:20.329Z,17.40
2022-08-29T00:16:29.021Z,17.30
2022-08-29T00:20:38.316Z,17.20
2022-08-29T00:24:46.990Z,17.10
2022-08-29T00:28:55.602Z,17.00
2022-08-29T00:33:23.563Z,17.00
2022-08-29T00:37:32.514Z,16.90
2022-08-29T00:41:41.058Z,16.90
2022-08-29T00:45:55.706Z,16.90
2022-08-29T00:50:08.786Z,16.80
2022-08-29T00:54:17.825Z,16.70
2022-08-29T00:58:29.512Z,16.70
2022-08-29T01:02:40.817Z,16.70
2022-08-29T01:07:01.561Z,16.60
2022-08-29T01:11:31.413Z,16.50
2022-08-29T01:15:42.423Z,16.50
2022-08-29T01:19:57.180Z,16.40
2022-08-29T01:24:28.054Z,16.40
2022-08-29T01:28:56.977Z,16.30
2022-08-29T01:33:06.716Z,16.30
2022-08-29T01:37:18.066Z,16.10
2022-08-29T01:41:27.936Z,16.10
2022-08-29T01:45:36.617Z,16.10
2022-08-29T01:49:45.684Z,16.10
2022-08-29T01:53:54.353Z,16.00
2022-08-29T01:58:02.962Z,16.00
2022-08-29T02:02:18.080Z,15.90
2022-08-29T02:06:30.114Z,16.00
2022-08-29T02:10:38.846Z,16.00
2022-08-29T02:14:50.904Z,15.90
2022-08-29T02:19:00.098Z,15.90
2022-08-29T02:23:27.119Z,15.90
2022-08-29T02:27:18.964Z,15.80
2022-08-29T02:31:27.625Z,15.80
2022-08-29T02:35:39.866Z,15.70
2022-08-29T02:39:47.188Z,15.70
2022-08-29T02:43:56.302Z,15.70
2022-08-29T02:48:05.521Z,15.80
2022-08-29T02:52:14.219Z,15.80
2022-08-29T02:56:23.673Z,15.70
2022-08-29T03:00:33.570Z,15.70
2022-08-29T03:04:42.226Z,15.70
2022-08-29T03:08:54.060Z,15.60
2022-08-29T03:13:03.704Z,15.60
2022-08-29T03:17:31.699Z,15.60
2022-08-29T03:21:41.264Z,15.50
2022-08-29T03:25:50.129Z,15.50
2022-08-29T03:29:58.909Z,15.50
2022-08-29T03:34:08.195Z,15.50
2022-08-29T03:38:17.460Z,15.50
2022-08-29T03:42:26.366Z,15.40
2022-08-29T03:46:36.909Z,15.40
2022-08-29T03:50:45.576Z,15.40
2022-08-29T03:54:54.320Z,15.40
2022-08-29T03:59:03.135Z,15.40
2022-08-29T04:03:11.724Z,15.30
2022-08-29T04:07:20.538Z,15.30
2022-08-29T04:11:29.786Z,15.30
2022-08-29T04:15:41.047Z,15.20
2022-08-29T04:19:49.633Z,15.20
2022-08-29T04:23:58.358Z,15.20
2022-08-29T04:28:10.086Z,15.20
2022-08-29T04:32:19.943Z,15.20
2022-08-29T04:36:28.829Z,15.20
2022-08-29T04:40:40.619Z,15.20
2022-08-29T04:44:49.823Z,15.10
2022-08-29T04:49:03.242Z,15.00
2022-08-29T04:53:09.700Z,15.00
2022-08-29T04:57:18.552Z,15.10
2022-08-29T05:01:28.771Z,15.10
2022-08-29T05:05:37.418Z,15.10
2022-08-29T05:09:46.032Z,15.10
2022-08-29T05:14:14.070Z,15.20
2022-08-29T05:18:23.354Z,15.10
2022-08-29T05:22:32.059Z,15.10
2022-08-29T05:26:44.198Z,15.10
2022-08-29T05:30:52.848Z,15.20
2022-08-29T05:35:01.667Z,15.10
2022-08-29T05:39:10.193Z,15.10
2022-08-29T05:43:20.463Z,15.20
2022-08-29T05:47:29.107Z,15.20
2022-08-29T05:51:39.874Z,15.40
2022-08-29T05:55:48.140Z,15.50
2022-08-29T05:59:56.743Z,15.50
2022-08-29T06:04:05.465Z,15.60
2022-08-29T06:08:14.233Z,15.60
2022-08-29T06:12:24.424Z,15.70
2022-08-29T06:16:34.606Z,15.80
2022-08-29T06:20:43.199Z,15.80
2022-08-29T06:24:57.536Z,15.80
2022-08-29T06:29:09.304Z,15.90
2022-08-29T06:33:18.115Z,15.90
2022-08-29T06:37:26.734Z,16.00
2022-08-29T06:41:54.686Z,16.10
2022-08-29T06:46:03.909Z,16.20
2022-08-29T06:50:12.484Z,16.30
2022-08-29T06:54:25.773Z,16.30
2022-08-29T06:58:36.437Z,16.30
2022-08-29T07:02:52.813Z,16.30
2022-08-29T07:06:58.476Z,16.40
2022-08-29T07:11:07.245Z,16.50
2022-08-29T07:15:15.865Z,16.60
2022-08-29T07:19:24.487Z,16.70
2022-08-29T07:23:53.363Z,16.80
2022-08-29T07:28:02.069Z,16.80
2022-08-29T07:32:11.186Z,17.10
2022-08-29T07:36:20.085Z,17.20
2022-08-29T07:40:29.189Z,17.40
2022-08-29T07:44:37.851Z,17.60
2022-08-29T07:48:47.021Z,17.60
2022-08-29T07:52:55.631Z,17.60
2022-08-29T07:57:04.430Z,17.70
2022-08-29T08:01:20.711Z,17.80
2022-08-29T08:05:24.539Z,18.00
2022-08-29T08:09:33.615Z,18.10
2022-08-29T08:13:42.660Z,18.20
2022-08-29T08:17:51.268Z,18.30
2022-08-29T08:22:00.004Z,18.40
2022-08-29T08:26:09.569Z,18.30
2022-08-29T08:30:18.313Z,18.10
2022-08-29T08:34:29.328Z,18.10
2022-08-29T08:38:38.250Z,18.30
2022-08-29T08:47:31.398Z,18.70
2022-08-29T08:51:44.738Z,18.90
2022-08-29T08:55:56.203Z,19.00
2022-08-29T09:00:06.841Z,18.90
2022-08-29T09:04:36.818Z,18.90
2022-08-29T09:09:04.504Z,18.90
2022-08-29T09:13:33.190Z,18.90
2022-08-29T09:17:44.883Z,19.00
2022-08-29T09:21:56.772Z,19.00
2022-08-29T09:26:05.661Z,19.20
2022-08-29T09:30:19.037Z,19.40
2022-08-29T09:35:07.287Z,19.70
2022-08-29T09:38:54.853Z,19.90
2022-08-29T09:43:04.584Z,20.30
2022-08-29T09:47:24.609Z,20.70
2022-08-29T09:51:36.057Z,20.60
2022-08-29T09:55:46.330Z,20.40
2022-08-29T10:00:13.579Z,20.00
2022-08-29T10:04:40.429Z,20.00
2022-08-29T10:09:12.976Z,20.00
2022-08-29T10:13:40.256Z,19.90
2022-08-29T10:18:09.674Z,20.00
2022-08-29T10:22:27.099Z,20.60
2022-08-29T10:26:50.991Z,21.10
2022-08-29T10:31:05.546Z,21.40
2022-08-29T10:35:32.349Z,21.70
2022-08-29T10:40:02.211Z,21.90
2022-08-29T10:44:34.437Z,22.10
2022-08-29T10:48:49.044Z,22.20
2022-08-29T10:53:00.708Z,22.40
2022-08-29T10:57:39.558Z,22.60
2022-08-29T11:01:56.982Z,22.50
2022-08-29T11:06:08.695Z,22.40
2022-08-29T11:10:29.807Z,22.40
2022-08-29T11:15:07.976Z,22.40
2022-08-29T11:19:22.470Z,22.30
2022-08-29T11:23:42.529Z,22.70
2022-08-29T11:28:09.425Z,22.90
2022-08-29T11:32:24.333Z,22.80
2022-08-29T11:36:48.383Z,22.70
2022-08-29T11:41:28.106Z,22.80
2022-08-29T11:45:36.582Z,22.90
2022-08-29T11:49:44.412Z,22.90
2022-08-29T11:53:53.026Z,23.20
2022-08-29T11:58:11.319Z,23.30
2022-08-29T12:02:33.599Z,23.20
2022-08-29T12:07:02.133Z,23.20
2022-08-29T12:11:10.728Z,23.50
2022-08-29T12:15:32.868Z,23.80
2022-08-29T12:19:56.109Z,23.90
2022-08-29T12:24:07.244Z,23.90
2022-08-29T12:28:25.899Z,23.90
2022-08-29T12:32:43.884Z,23.90
2022-08-29T12:37:13.489Z,24.00
2022-08-29T12:41:37.279Z,24.10
2022-08-29T12:45:49.858Z,24.10
2022-08-29T12:50:01.748Z,24.10
2022-08-29T12:54:12.201Z,24.10
2022-08-29T12:58:41.889Z,24.00
2022-08-29T13:02:59.763Z,23.70
2022-08-29T13:07:10.754Z,23.80
2022-08-29T13:11:28.292Z,23.90
2022-08-29T13:15:37.478Z,24.00
2022-08-29T13:20:23.374Z,24.10
2022-08-29T13:24:52.840Z,24.20
2022-08-29T13:29:04.522Z,24.30
2022-08-29T13:33:34.649Z,24.40
2022-08-29T13:37:35.893Z,24.50
2022-08-29T13:41:51.788Z,24.70
2022-08-29T13:46:15.636Z,24.80
2022-08-29T13:50:25.830Z,24.80
2022-08-29T13:54:35.791Z,24.90
2022-08-29T13:58:44.393Z,25.00
2022-08-29T14:02:53.120Z,24.90
2022-08-29T14:07:02.510Z,25.00
2022-08-29T14:11:11.544Z,25.00
2022-08-29T14:15:21.126Z,25.00
2022-08-29T14:19:30.974Z,25.00
2022-08-29T14:23:39.597Z,25.00
2022-08-29T14:27:49.446Z,25.00
2022-08-29T14:31:58.268Z,25.10
2022-08-29T14:36:07.447Z,25.00
2022-08-29T14:40:16.382Z,25.10
2022-08-29T14:44:27.242Z,25.30
2022-08-29T14:48:36.358Z,25.30
2022-08-29T14:52:45.510Z,25.40
2022-08-29T14:56:54.088Z,25.40
2022-08-29T15:01:02.678Z,25.40
2022-08-29T15:05:12.113Z,25.20
2022-08-29T15:09:21.648Z,25.30
2022-08-29T15:13:30.254Z,25.20
2022-08-29T15:17:40.481Z,25.20
2022-08-29T15:21:49.644Z,25.20
2022-08-29T15:25:58.219Z,25.10
2022-08-29T15:30:08.747Z,25.10
2022-08-29T15:34:17.283Z,25.00
2022-08-29T15:38:25.899Z,24.80
2022-08-29T15:42:34.802Z,24.60
2022-08-29T15:46:50.562Z,24.60
2022-08-29T15:50:53.704Z,24.50
2022-08-29T15:55:02.619Z,24.50
2022-08-29T15:59:13.188Z,24.50
2022-08-29T16:03:22.137Z,24.50
2022-08-29T16:07:31.311Z,24.50
2022-08-29T16:11:40.373Z,24.40
2022-08-29T16:15:50.177Z,24.40
2022-08-29T16:20:00.699Z,24.30
2022-08-29T16:24:09.674Z,24.20
2022-08-29T16:28:18.957Z,24.20
2022-08-29T16:32:27.904Z,24.20
2022-08-29T16:36:37.121Z,24.10
2022-08-29T16:40:46.015Z,24.00
2022-08-29T16:44:54.586Z,23.90
2022-08-29T16:49:03.259Z,23.90
2022-08-29T16:53:11.855Z,23.80
2022-08-29T16:57:20.542Z,23.80
2022-08-29T17:01:32.144Z,23.90
2022-08-29T17:05:40.939Z,23.90
2022-08-29T17:09:48.857Z,23.80
2022-08-29T17:13:57.015Z,23.70
2022-08-29T17:18:24.866Z,23.60
2022-08-29T17:22:34.209Z,23.60
2022-08-29T17:26:45.711Z,23.50
2022-08-29T17:30:57.387Z,23.50
2022-08-29T17:35:07.408Z,23.40
2022-08-29T17:39:16.015Z,23.30
2022-08-29T17:43:26.002Z,23.30
2022-08-29T17:47:34.586Z,23.20
2022-08-29T17:51:43.537Z,23.20
2022-08-29T17:55:54.754Z,23.10
2022-08-29T18:00:05.169Z,23.00
2022-08-29T18:04:14.223Z,22.90
2022-08-29T18:08:22.834Z,22.80
2022-08-29T18:12:31.545Z,22.80
2022-08-29T18:16:40.749Z,22.70
2022-08-29T18:20:49.655Z,22.60
2022-08-29T18:24:59.011Z,22.60
2022-08-29T18:29:07.892Z,22.50
2022-08-29T18:33:16.573Z,22.50
2022-08-29T18:37:25.233Z,22.40
2022-08-29T18:41:34.274Z,22.30
2022-08-29T18:45:43.249Z,22.20
2022-08-29T18:50:09.524Z,22.20
2022-08-29T18:54:19.327Z,22.10
2022-08-29T18:58:31.413Z,22.00
2022-08-29T19:02:40.249Z,21.90
2022-08-29T19:06:49.018Z,21.90
2022-08-29T19:10:59.182Z,21.80
2022-08-29T19:15:09.014Z,21.70
2022-08-29T19:19:17.783Z,21.60
2022-08-29T19:23:26.742Z,21.60
2022-08-29T19:27:55.721Z,21.50
2022-08-29T19:32:04.580Z,21.50
2022-08-29T19:36:13.660Z,21.40
2022-08-29T19:40:22.491Z,21.30
2022-08-29T19:44:31.125Z,21.20
2022-08-29T19:48:41.439Z,21.20
2022-08-29T19:52:50.160Z,21.10
2022-08-29T19:56:58.774Z,21.10
2022-08-29T20:01:09.385Z,21.10
2022-08-29T20:05:19.278Z,21.10
2022-08-29T20:09:29.541Z,21.00
2022-08-29T20:13:39.939Z,21.00
2022-08-29T20:17:49.113Z,21.00
2022-08-29T20:21:57.728Z,20.90
2022-08-29T20:26:06.486Z,20.80
2022-08-29T20:30:18.221Z,20.80
2022-08-29T20:34:29.693Z,20.70
2022-08-29T20:38:38.344Z,20.70
2022-08-29T20:42:46.960Z,20.70
2022-08-29T20:46:55.762Z,20.60
2022-08-29T20:51:07.371Z,20.60
2022-08-29T20:55:16.628Z,20.50
2022-08-29T20:59:26.623Z,20.50
2022-08-29T21:04:12.834Z,20.50
2022-08-29T21:08:23.273Z,20.40
2022-08-29T21:12:31.901Z,20.40
2022-08-29T21:16:40.566Z,20.40
2022-08-29T21:20:54.118Z,20.40
2022-08-29T21:25:22.363Z,20.40
2022-08-29T21:29:31.060Z,20.40
2022-08-29T21:33:42.398Z,20.40
2022-08-29T21:37:51.547Z,20.40
2022-08-29T21:42:02.910Z,20.30
2022-08-29T21:46:18.419Z,20.30
2022-08-29T21:50:27.564Z,20.30
2022-08-29T21:54:36.192Z,20.30
2022-08-29T21:58:46.789Z,20.20
2022-08-29T22:02:55.938Z,20.20
2022-08-29T22:07:05.739Z,20.10
2022-08-29T22:11:21.984Z,20.10
2022-08-29T22:15:48.885Z,20.10
2022-08-29T22:19:57.553Z,20.10
2022-08-29T22:24:07.442Z,20.10
2022-08-29T22:28:16.386Z,20.10
2022-08-29T22:32:25.649Z,20.10
2022-08-29T22:36:36.140Z,20.10
2022-08-29T22:40:44.981Z,20.20
2022-08-29T22:45:09.198Z,20.20
2022-08-29T22:49:04.521Z,20.10
2022-08-29T22:53:14.135Z,20.10
2022-08-29T22:57:22.786Z,20.10
2022-08-29T23:01:33.545Z,20.00
2022-08-29T23:05:42.259Z,20.00
2022-08-29T23:09:50.870Z,20.00
2022-08-29T23:13:59.564Z,19.90
2022-08-29T23:18:08.178Z,19.90
2022-08-29T23:22:16.792Z,19.90
2022-08-29T23:26:25.864Z,19.80
2022-08-29T23:30:34.789Z,19.80
2022-08-29T23:34:43.404Z,19.80
2022-08-29T23:38:52.723Z,19.80
2022-08-29T23:43:01.470Z,19.80
2022-08-29T23:47:10.166Z,19.80
2022-08-29T23:51:19.068Z,19.80
2022-08-29T23:55:27.845Z,19.80
2022-08-29T23:59:54.751Z,19.80
